createdAt,value
2023-02-01T00:02:40.120Z,1.79
2023-02-01T00:05:41.435Z,1.79
2023-02-01T00:08:42.853Z,1.80
2023-02-01T00:11:44.363Z,1.80
2023-02-01T00:14:47.583Z,1.81
2023-02-01T00:17:55.012Z,1.82
2023-02-01T00:20:56.458Z,1.86
2023-02-01T00:23:57.847Z,1.91
2023-02-01T00:26:59.327Z,1.94
2023-02-01T00:30:00.718Z,1.92
2023-02-01T00:33:02.119Z,1.88
2023-02-01T00:36:06.903Z,1.86
2023-02-01T00:39:08.974Z,1.82
2023-02-01T00:42:10.490Z,1.73
2023-02-01T00:45:11.906Z,1.76
2023-02-01T00:48:13.653Z,1.68
2023-02-01T00:51:17.410Z,1.59
2023-02-01T00:54:18.915Z,1.47
2023-02-01T00:57:20.419Z,1.43
2023-02-01T01:00:22.589Z,1.41
2023-02-01T01:03:24.449Z,1.44
2023-02-01T01:06:28.628Z,1.53
2023-02-01T01:09:30.086Z,1.65
2023-02-01T01:12:31.543Z,1.77
2023-02-01T01:15:40.043Z,1.82
2023-02-01T01:18:42.183Z,1.80
2023-02-01T01:21:43.579Z,1.79
2023-02-01T01:24:44.958Z,1.84
2023-02-01T01:27:46.436Z,1.86
2023-02-01T01:30:47.997Z,1.82
2023-02-01T01:33:54.580Z,1.72
2023-02-01T01:36:55.982Z,1.68
2023-02-01T01:39:57.807Z,1.65
2023-02-01T01:42:59.256Z,1.58
2023-02-01T01:46:00.748Z,1.52
2023-02-01T01:49:19.566Z,1.58
2023-02-01T01:52:21.447Z,1.59
2023-02-01T01:55:26.093Z,1.68
2023-02-01T01:58:33.330Z,1.73
2023-02-01T02:01:35.585Z,1.69
2023-02-01T02:04:37.285Z,1.74
2023-02-01T02:07:43.851Z,1.80
2023-02-01T02:11:00.546Z,1.87
2023-02-01T02:14:05.445Z,1.93
2023-02-01T02:17:06.872Z,1.98
2023-02-01T02:20:30.220Z,2.05
2023-02-01T02:24:19.675Z,2.18
2023-02-01T02:27:36.286Z,2.28
2023-02-01T02:30:54.467Z,2.29
2023-02-01T02:34:04.987Z,2.23
2023-02-01T02:37:16.663Z,2.15
2023-02-01T02:40:28.327Z,2.10
2023-02-01T02:44:06.947Z,2.04
2023-02-01T02:47:25.360Z,2.01
2023-02-01T02:50:52.908Z,2.05
2023-02-01T02:54:34.875Z,2.08
2023-02-01T02:58:01.202Z,2.07
2023-02-01T03:01:23.038Z,2.04
2023-02-01T03:04:26.007Z,2.03
2023-02-01T03:07:54.163Z,1.98
2023-02-01T03:10:58.355Z,1.90
2023-02-01T03:14:03.164Z,1.84
2023-02-01T03:17:13.583Z,1.78
2023-02-01T03:20:20.335Z,1.82
2023-02-01T03:23:26.299Z,1.86
2023-02-01T03:26:31.087Z,1.96
2023-02-01T03:29:48.303Z,2.02
2023-02-01T03:33:00.214Z,2.10
2023-02-01T03:36:10.356Z,2.16
2023-02-01T03:39:30.189Z,2.21
2023-02-01T03:42:37.888Z,2.26
2023-02-01T03:45:55.737Z,2.31
2023-02-01T03:48:57.485Z,2.37
2023-02-01T03:52:00.330Z,2.39
2023-02-01T03:55:02.650Z,2.42
2023-02-01T03:58:14.307Z,2.39
2023-02-01T04:01:15.949Z,2.35
2023-02-01T04:04:20.263Z,2.26
2023-02-01T04:07:22.849Z,2.07
2023-02-01T04:10:25.325Z,1.88
2023-02-01T04:13:27.075Z,1.76
2023-02-01T04:16:28.493Z,1.66
2023-02-01T04:19:29.872Z,1.57
2023-02-01T04:22:31.267Z,1.48
2023-02-01T04:25:32.650Z,1.38
2023-02-01T04:28:34.092Z,1.32
2023-02-01T04:31:36.801Z,1.36
2023-02-01T04:34:38.297Z,1.40
2023-02-01T04:37:39.633Z,1.45
2023-02-01T04:40:41.099Z,1.45
2023-02-01T04:43:42.864Z,1.36
2023-02-01T04:46:45.572Z,1.29
2023-02-01T04:49:46.971Z,1.18
2023-02-01T04:52:48.363Z,1.16
2023-02-01T04:55:50.459Z,1.11
2023-02-01T04:58:51.910Z,1.17
2023-02-01T05:01:53.458Z,1.22
2023-02-01T05:04:56.203Z,1.25
2023-02-01T05:07:57.753Z,1.29
2023-02-01T05:10:59.355Z,1.28
2023-02-01T05:14:02.560Z,1.24
2023-02-01T05:17:04.122Z,1.24
2023-02-01T05:20:06.849Z,1.22
2023-02-01T05:23:08.260Z,1.17
2023-02-01T05:26:09.784Z,1.11
2023-02-01T05:29:11.999Z,1.10
2023-02-01T05:32:22.161Z,1.10
2023-02-01T05:35:24.269Z,1.12
2023-02-01T05:38:26.182Z,1.08
2023-02-01T05:41:27.581Z,1.06
2023-02-01T05:44:29.147Z,1.03
2023-02-01T05:47:30.536Z,1.00
2023-02-01T05:50:31.951Z,0.98
2023-02-01T05:53:33.441Z,0.96
2023-02-01T05:56:34.831Z,0.89
2023-02-01T05:59:41.239Z,0.85
2023-02-01T06:02:42.837Z,0.85
2023-02-01T06:05:45.492Z,0.85
2023-02-01T06:08:46.949Z,0.84
2023-02-01T06:11:48.361Z,0.83
2023-02-01T06:14:49.702Z,0.79
2023-02-01T06:17:51.095Z,0.74
2023-02-01T06:20:57.345Z,0.78
2023-02-01T06:23:59.280Z,0.83
2023-02-01T06:27:00.678Z,0.88
2023-02-01T06:30:03.810Z,0.88
2023-02-01T06:33:05.682Z,0.92
2023-02-01T06:36:10.169Z,0.95
2023-02-01T06:39:16.109Z,0.95
2023-02-01T06:42:17.809Z,0.97
2023-02-01T06:45:19.217Z,1.05
2023-02-01T06:48:20.564Z,1.15
2023-02-01T06:51:25.675Z,1.25
2023-02-01T06:54:28.650Z,1.37
2023-02-01T06:57:31.118Z,1.52
2023-02-01T07:00:32.556Z,1.68
2023-02-01T07:03:35.005Z,1.86
2023-02-01T07:06:36.331Z,2.05
2023-02-01T07:09:37.836Z,2.17
2023-02-01T07:12:39.899Z,2.32
2023-02-01T07:15:41.419Z,2.47
2023-02-01T07:18:43.317Z,2.62
2023-02-01T07:21:44.789Z,2.78
2023-02-01T07:24:46.178Z,2.91
2023-02-01T07:27:47.632Z,3.03
2023-02-01T07:30:51.290Z,3.18
2023-02-01T07:33:52.993Z,3.30
2023-02-01T07:36:54.678Z,3.44
2023-02-01T07:39:56.120Z,3.62
2023-02-01T07:42:57.670Z,3.78
2023-02-01T07:45:59.895Z,3.86
2023-02-01T07:49:01.367Z,3.96
2023-02-01T07:52:02.861Z,4.06
2023-02-01T07:55:04.714Z,4.06
2023-02-01T07:58:06.171Z,4.18
2023-02-01T08:01:20.628Z,4.24
2023-02-01T08:04:22.146Z,4.38
2023-02-01T08:07:23.614Z,4.47
2023-02-01T08:10:25.578Z,4.44
2023-02-01T08:13:27.523Z,4.49
2023-02-01T08:16:29.018Z,4.51
2023-02-01T08:19:30.373Z,4.48
2023-02-01T08:22:32.781Z,4.56
2023-02-01T08:25:35.242Z,4.74
2023-02-01T08:28:38.104Z,4.88
2023-02-01T08:31:41.194Z,5.02
2023-02-01T08:34:42.597Z,5.14
2023-02-01T08:37:44.036Z,5.23
2023-02-01T08:40:46.661Z,5.23
2023-02-01T08:43:48.312Z,5.24
2023-02-01T08:46:49.715Z,5.26
2023-02-01T08:49:52.109Z,5.27
2023-02-01T08:52:54.106Z,5.41
2023-02-01T08:55:55.522Z,5.59
2023-02-01T08:58:56.896Z,5.78
2023-02-01T09:01:58.509Z,5.96
2023-02-01T09:04:59.968Z,6.15
2023-02-01T09:08:01.417Z,6.26
2023-02-01T09:11:08.211Z,6.27
2023-02-01T09:14:09.567Z,6.27
2023-02-01T09:17:11.043Z,6.25
2023-02-01T09:20:12.957Z,6.17
2023-02-01T09:23:14.614Z,6.11
2023-02-01T09:26:19.602Z,6.06
2023-02-01T09:29:21.528Z,5.89
2023-02-01T09:32:24.417Z,5.71
2023-02-01T09:35:26.107Z,5.57
2023-02-01T09:38:28.466Z,5.46
2023-02-01T09:41:57.495Z,5.34
2023-02-01T09:45:08.751Z,5.23
2023-02-01T09:48:17.084Z,5.17
2023-02-01T09:51:34.457Z,5.21
2023-02-01T09:54:50.082Z,5.38
2023-02-01T09:57:58.477Z,5.60
2023-02-01T10:01:02.236Z,5.72
2023-02-01T10:04:09.403Z,5.76
2023-02-01T10:07:15.549Z,5.88
2023-02-01T10:10:44.319Z,5.92
2023-02-01T10:13:59.773Z,5.99
2023-02-01T10:17:23.614Z,6.07
2023-02-01T10:20:47.601Z,6.16
2023-02-01T10:24:06.217Z,6.22
2023-02-01T10:27:23.043Z,6.15
2023-02-01T10:30:34.667Z,6.17
2023-02-01T10:33:43.406Z,6.21
2023-02-01T10:36:57.583Z,6.11
2023-02-01T10:40:23.205Z,6.06
2023-02-01T10:43:25.003Z,6.12
2023-02-01T10:46:27.155Z,6.05
2023-02-01T10:49:37.232Z,5.95
2023-02-01T10:53:06.190Z,5.87
2023-02-01T10:56:10.011Z,5.78
2023-02-01T10:59:25.347Z,5.67
2023-02-01T11:02:31.428Z,5.56
2023-02-01T11:05:45.617Z,5.49
2023-02-01T11:08:59.866Z,5.40
2023-02-01T11:12:01.405Z,5.37
2023-02-01T11:15:11.925Z,5.36
2023-02-01T11:18:19.353Z,5.34
2023-02-01T11:21:21.081Z,5.33
2023-02-01T11:24:24.024Z,5.33
2023-02-01T11:27:27.971Z,5.27
2023-02-01T11:30:41.495Z,5.21
2023-02-01T11:33:49.832Z,5.14
2023-02-01T11:36:53.409Z,5.05
2023-02-01T11:40:00.092Z,4.93
2023-02-01T11:43:25.645Z,4.88
2023-02-01T11:46:31.276Z,4.87
2023-02-01T11:49:32.652Z,4.87
2023-02-01T11:52:41.110Z,4.89
2023-02-01T11:56:12.885Z,4.91
2023-02-01T11:59:17.252Z,4.88
2023-02-01T12:02:27.472Z,4.79
2023-02-01T12:05:50.933Z,4.70
2023-02-01T12:09:11.750Z,4.67
2023-02-01T12:12:32.478Z,4.63
2023-02-01T12:15:53.722Z,4.54
2023-02-01T12:19:09.730Z,4.47
2023-02-01T12:22:32.879Z,4.39
2023-02-01T12:26:25.615Z,4.30
2023-02-01T12:29:48.710Z,4.13
2023-02-01T12:33:22.308Z,4.01
2023-02-01T12:36:43.650Z,3.90
2023-02-01T12:39:54.068Z,3.89
2023-02-01T12:43:25.637Z,3.84
2023-02-01T12:46:37.285Z,3.81
2023-02-01T12:49:58.613Z,3.84
2023-02-01T12:53:30.809Z,3.84
2023-02-01T12:56:42.197Z,3.81
2023-02-01T12:59:52.944Z,3.82
2023-02-01T13:03:11.964Z,3.81
2023-02-01T13:06:26.667Z,3.81
2023-02-01T13:09:49.933Z,3.86
2023-02-01T13:13:02.309Z,3.88
2023-02-01T13:16:27.311Z,3.87
2023-02-01T13:19:29.223Z,3.82
2023-02-01T13:22:35.757Z,3.79
2023-02-01T13:25:51.716Z,3.77
2023-02-01T13:29:09.347Z,3.69
2023-02-01T13:33:51.264Z,3.66
2023-02-01T13:36:18.926Z,3.65
2023-02-01T13:39:32.388Z,3.64
2023-02-01T13:42:51.939Z,3.68
2023-02-01T13:45:57.961Z,3.71
2023-02-01T13:49:03.027Z,3.72
2023-02-01T13:52:05.428Z,3.70
2023-02-01T13:55:22.732Z,3.62
2023-02-01T13:58:34.424Z,3.60
2023-02-01T14:01:36.345Z,3.58
2023-02-01T14:04:50.005Z,3.57
2023-02-01T14:08:07.028Z,3.55
2023-02-01T14:11:36.041Z,3.50
2023-02-01T14:14:39.743Z,3.46
2023-02-01T14:17:41.576Z,3.43
2023-02-01T14:20:46.539Z,3.40
2023-02-01T14:24:08.369Z,3.33
2023-02-01T14:27:12.929Z,3.26
2023-02-01T14:30:16.946Z,3.24
2023-02-01T14:33:22.160Z,3.19
2023-02-01T14:36:24.420Z,3.10
2023-02-01T14:39:35.011Z,2.99
2023-02-01T14:42:47.896Z,2.89
2023-02-01T14:45:51.126Z,2.87
2023-02-01T14:48:53.591Z,2.87
2023-02-01T14:51:57.199Z,2.86
2023-02-01T14:55:05.878Z,2.83
2023-02-01T14:58:46.227Z,2.83
2023-02-01T15:01:52.452Z,2.81
2023-02-01T15:04:56.354Z,2.80
2023-02-01T15:08:05.280Z,2.76
2023-02-01T15:11:16.891Z,2.69
2023-02-01T15:14:18.285Z,2.66
2023-02-01T15:17:25.800Z,2.64
2023-02-01T15:20:29.366Z,2.61
2023-02-01T15:23:33.535Z,2.56
2023-02-01T15:26:34.916Z,2.49
2023-02-01T15:29:36.434Z,2.43
2023-02-01T15:32:39.951Z,2.42
2023-02-01T15:35:44.820Z,2.45
2023-02-01T15:38:46.225Z,2.45
2023-02-01T15:41:54.575Z,2.44
2023-02-01T15:44:55.971Z,2.43
2023-02-01T15:47:59.120Z,2.45
2023-02-01T15:51:01.666Z,2.48
2023-02-01T15:54:08.274Z,2.50
2023-02-01T15:57:10.103Z,2.51
2023-02-01T16:00:35.252Z,2.49
2023-02-01T16:03:43.566Z,2.51
2023-02-01T16:06:48.626Z,2.53
2023-02-01T16:09:54.866Z,2.59
2023-02-01T16:13:00.480Z,2.65
2023-02-01T16:16:04.180Z,2.68
2023-02-01T16:19:05.550Z,2.68
2023-02-01T16:22:06.933Z,2.68
2023-02-01T16:25:08.680Z,2.64
2023-02-01T16:28:10.099Z,2.60
2023-02-01T16:31:20.893Z,2.57
2023-02-01T16:34:22.565Z,2.52
2023-02-01T16:37:25.719Z,2.54
2023-02-01T16:40:27.124Z,2.56
2023-02-01T16:43:28.582Z,2.59
2023-02-01T16:46:35.111Z,2.60
2023-02-01T16:49:36.985Z,2.60
2023-02-01T16:52:38.661Z,2.59
2023-02-01T16:55:41.021Z,2.61
2023-02-01T16:58:43.331Z,2.65
2023-02-01T17:01:44.837Z,2.67
2023-02-01T17:04:48.965Z,2.69
2023-02-01T17:07:50.885Z,2.71
2023-02-01T17:10:52.315Z,2.71
2023-02-01T17:13:54.020Z,2.66
2023-02-01T17:16:55.772Z,2.60
2023-02-01T17:19:57.458Z,2.53
2023-02-01T17:22:59.735Z,2.47
2023-02-01T17:26:02.775Z,2.40
2023-02-01T17:29:04.158Z,2.40
2023-02-01T17:32:06.721Z,2.41
2023-02-01T17:35:20.841Z,2.35
2023-02-01T17:38:24.283Z,2.31
2023-02-01T17:41:25.774Z,2.33
2023-02-01T17:44:27.951Z,2.37
2023-02-01T17:47:29.326Z,2.45
2023-02-01T17:50:33.131Z,2.51
2023-02-01T17:53:35.139Z,2.52
2023-02-01T17:56:36.550Z,2.48
2023-02-01T17:59:37.945Z,2.49
2023-02-01T18:02:39.410Z,2.46
2023-02-01T18:05:44.034Z,2.42
2023-02-01T18:08:45.712Z,2.41
2023-02-01T18:11:49.792Z,2.42
2023-02-01T18:14:51.233Z,2.40
2023-02-01T18:17:53.106Z,2.38
2023-02-01T18:20:54.662Z,2.40
2023-02-01T18:23:56.170Z,2.43
2023-02-01T18:26:58.887Z,2.47
2023-02-01T18:30:00.526Z,2.44
2023-02-01T18:33:02.009Z,2.41
2023-02-01T18:36:03.484Z,2.39
2023-02-01T18:39:04.947Z,2.39
2023-02-01T18:42:09.703Z,2.41
2023-02-01T18:45:22.574Z,2.43
2023-02-01T18:48:24.469Z,2.48
2023-02-01T18:51:25.918Z,2.56
2023-02-01T18:54:27.671Z,2.64
2023-02-01T18:57:29.123Z,2.64
2023-02-01T19:00:30.627Z,2.65
2023-02-01T19:03:32.118Z,2.66
2023-02-01T19:06:34.144Z,2.65
2023-02-01T19:09:35.915Z,2.67
2023-02-01T19:12:38.419Z,2.68
2023-02-01T19:15:41.595Z,2.62
2023-02-01T19:18:44.159Z,2.59
2023-02-01T19:21:45.785Z,2.59
2023-02-01T19:24:47.349Z,2.58
2023-02-01T19:27:49.989Z,2.54
2023-02-01T19:31:04.161Z,2.46
2023-02-01T19:34:05.682Z,2.38
2023-02-01T19:37:08.113Z,2.33
2023-02-01T19:40:12.018Z,2.27
2023-02-01T19:43:13.413Z,2.28
2023-02-01T19:46:14.933Z,2.28
2023-02-01T19:49:16.641Z,2.28
2023-02-01T19:52:18.150Z,2.21
2023-02-01T19:55:20.150Z,2.15
2023-02-01T19:58:21.631Z,2.12
2023-02-01T20:01:22.129Z,2.05
2023-02-01T20:04:23.952Z,1.96
2023-02-01T20:07:25.281Z,1.88
2023-02-01T20:10:26.757Z,1.83
2023-02-01T20:13:28.288Z,1.78
2023-02-01T20:16:29.662Z,1.78
2023-02-01T20:19:31.724Z,1.78
2023-02-01T20:22:33.074Z,1.79
2023-02-01T20:25:36.592Z,1.75
2023-02-01T20:28:38.145Z,1.75
2023-02-01T20:31:39.693Z,1.77
2023-02-01T20:34:41.166Z,1.73
2023-02-01T20:37:42.651Z,1.74
2023-02-01T20:40:44.050Z,1.75
2023-02-01T20:43:46.363Z,1.78
2023-02-01T20:46:47.931Z,1.79
2023-02-01T20:49:49.289Z,1.81
2023-02-01T20:52:50.678Z,1.83
2023-02-01T20:55:54.263Z,1.83
2023-02-01T20:59:02.331Z,1.83
2023-02-01T21:02:04.074Z,1.85
2023-02-01T21:05:05.965Z,1.89
2023-02-01T21:08:09.839Z,1.89
2023-02-01T21:11:13.465Z,1.94
2023-02-01T21:14:15.100Z,1.96
2023-02-01T21:17:16.434Z,1.92
2023-02-01T21:20:18.300Z,1.87
2023-02-01T21:23:19.847Z,1.86
2023-02-01T21:26:23.609Z,1.90
2023-02-01T21:29:25.069Z,1.88
2023-02-01T21:32:26.555Z,1.89
2023-02-01T21:35:29.021Z,1.93
2023-02-01T21:38:30.441Z,2.01
2023-02-01T21:41:51.738Z,2.01
2023-02-01T21:44:54.403Z,1.95
2023-02-01T21:47:56.744Z,1.88
2023-02-01T21:50:58.132Z,1.78
2023-02-01T21:53:59.544Z,1.77
2023-02-01T21:57:01.109Z,1.80
2023-02-01T22:00:04.910Z,1.81
2023-02-01T22:03:06.192Z,1.77
2023-02-01T22:06:07.743Z,1.74
2023-02-01T22:09:22.118Z,1.71
2023-02-01T22:12:23.584Z,1.72
2023-02-01T22:15:28.443Z,1.75
2023-02-01T22:18:30.425Z,1.72
2023-02-01T22:21:32.157Z,1.68
2023-02-01T22:24:35.396Z,1.64
2023-02-01T22:28:32.666Z,1.66
2023-02-01T22:31:05.150Z,1.73
2023-02-01T22:34:08.520Z,1.70
2023-02-01T22:37:11.251Z,1.68
2023-02-01T22:40:13.698Z,1.69
2023-02-01T22:43:15.046Z,1.71
2023-02-01T22:46:19.650Z,1.70
2023-02-01T22:49:21.279Z,1.71
2023-02-01T22:52:22.871Z,1.70
2023-02-01T22:55:24.815Z,1.73
2023-02-01T22:58:26.923Z,1.79
2023-02-01T23:01:28.941Z,1.79
2023-02-01T23:04:30.512Z,1.78
2023-02-01T23:07:31.989Z,1.78
2023-02-01T23:10:33.526Z,1.78
2023-02-01T23:13:36.259Z,1.79
2023-02-01T23:16:38.537Z,1.85
2023-02-01T23:19:39.950Z,1.89
2023-02-01T23:22:47.513Z,1.93
2023-02-01T23:25:50.594Z,1.93
2023-02-01T23:28:54.438Z,1.95
2023-02-01T23:31:55.870Z,1.97
2023-02-01T23:34:57.381Z,1.99
2023-02-01T23:37:58.954Z,2.03
2023-02-01T23:41:07.087Z,2.07
2023-02-01T23:44:08.735Z,2.12
2023-02-01T23:47:11.318Z,2.12
2023-02-01T23:50:12.719Z,2.12
2023-02-01T23:53:14.127Z,2.16
2023-02-01T23:56:33.081Z,2.20
2023-02-01T23:59:34.680Z,2.24
